Time;durP1;ratioP1;P1;durP2;ratioP2;P2;SDS_P1;SDS_P2;PMS_P1;PMS_P2;Temp;Humidity;BMP_temperature;BMP_pressure;BME280_temperature;BME280_humidity;BME280_pressure;Samples;Min_cycle;Max_cycle;Signal;HPM_P1;HPM_P2
2022/11/30 00:01:19;;;;;;;229.50;57.53;;;7.20;99.90;;;;;;5009577;28;20038;-72
2022/11/30 00:03:46;;;;;;;271.48;58.40;;;7.20;99.90;;;;;;4996874;28;20068;-71
2022/11/30 00:06:15;;;;;;;292.83;64.25;;;7.20;99.90;;;;;;5015790;28;20049;-72
2022/11/30 00:08:41;;;;;;;276.65;59.38;;;7.30;99.90;;;;;;5016234;28;20038;-72
2022/11/30 00:11:13;;;;;;;288.80;61.33;;;7.30;99.90;;;;;;5009145;28;20029;-72
2022/11/30 00:13:40;;;;;;;252.10;60.03;;;7.30;99.90;;;;;;5020599;28;20042;-72
2022/11/30 00:16:07;;;;;;;237.45;60.22;;;7.30;99.90;;;;;;4996726;28;20040;-72
2022/11/30 00:18:34;;;;;;;247.32;60.30;;;7.20;99.90;;;;;;5014050;28;20049;-71
2022/11/30 00:21:07;;;;;;;231.10;58.30;;;7.20;99.90;;;;;;5014893;28;20045;-71
2022/11/30 00:23:35;;;;;;;272.35;60.40;;;7.10;99.90;;;;;;5001889;28;20665;-72
2022/11/30 00:26:04;;;;;;;271.60;60.88;;;7.10;99.90;;;;;;5004097;28;20047;-72
2022/11/30 00:28:34;;;;;;;306.85;68.07;;;7.10;99.90;;;;;;5014378;28;20541;-71
2022/11/30 00:31:08;;;;;;;305.48;65.75;;;7.10;99.90;;;;;;5011823;28;20042;-74
2022/11/30 00:33:37;;;;;;;267.70;61.00;;;7.10;99.90;;;;;;5016189;28;20065;-74
2022/11/30 00:36:12;;;;;;;283.67;64.30;;;7.10;99.90;;;;;;5000355;28;20308;-72
2022/11/30 00:38:39;;;;;;;256.25;60.22;;;7.10;99.90;;;;;;5018209;28;20076;-72
2022/11/30 00:41:06;;;;;;;274.58;62.72;;;7.10;99.90;;;;;;5001165;28;20050;-72
2022/11/30 00:43:33;;;;;;;280.95;63.10;;;7.10;99.90;;;;;;4998676;28;20133;-71
2022/11/30 00:46:00;;;;;;;299.25;68.47;;;7.10;99.90;;;;;;4992849;28;20141;-72
2022/11/30 00:48:27;;;;;;;271.10;68.15;;;7.10;99.90;;;;;;5019810;28;20052;-71
2022/11/30 00:50:54;;;;;;;279.55;63.28;;;7.20;99.90;;;;;;4995550;28;20038;-71
2022/11/30 00:53:21;;;;;;;283.80;67.65;;;7.20;99.90;;;;;;5019129;28;20671;-71
2022/11/30 00:55:48;;;;;;;300.92;66.00;;;7.20;99.90;;;;;;5018162;28;20054;-71
2022/11/30 00:58:14;;;;;;;278.92;64.80;;;7.20;99.90;;;;;;5015155;28;20045;-71
2022/11/30 01:00:41;;;;;;;239.13;58.03;;;7.30;99.90;;;;;;5013112;28;20065;-71
2022/11/30 01:03:09;;;;;;;222.32;56.47;;;7.30;99.90;;;;;;4999868;28;20034;-71
2022/11/30 01:05:36;;;;;;;214.27;54.67;;;7.30;99.90;;;;;;5016335;28;20301;-71
2022/11/30 01:08:04;;;;;;;234.48;55.92;;;7.30;99.90;;;;;;5014400;28;20043;-71
2022/11/30 01:10:32;;;;;;;229.38;56.08;;;7.30;99.90;;;;;;5017489;28;20033;-71
2022/11/30 01:12:59;;;;;;;238.88;56.47;;;7.30;99.90;;;;;;5015773;28;20044;-71
2022/11/30 01:15:26;;;;;;;262.77;59.55;;;7.30;99.90;;;;;;5018101;28;20041;-71
2022/11/30 01:17:53;;;;;;;221.20;56.05;;;7.20;99.90;;;;;;5014560;28;20033;-71
2022/11/30 01:20:20;;;;;;;227.38;57.70;;;7.20;99.90;;;;;;4996702;28;20133;-71
2022/11/30 01:22:47;;;;;;;226.40;55.50;;;7.20;99.90;;;;;;4980320;28;20046;-72
2022/11/30 01:25:14;;;;;;;259.88;59.47;;;7.20;99.90;;;;;;5005042;28;20053;-74
2022/11/30 01:27:40;;;;;;;258.17;58.25;;;7.20;99.90;;;;;;5016940;28;20044;-74
2022/11/30 01:30:07;;;;;;;201.48;53.40;;;7.20;99.90;;;;;;5014797;28;20077;-72
2022/11/30 01:32:34;;;;;;;208.70;54.10;;;7.20;99.90;;;;;;5009127;28;20038;-72
2022/11/30 01:35:01;;;;;;;220.30;52.00;;;7.20;99.90;;;;;;5005375;28;20042;-72
2022/11/30 01:37:29;;;;;;;218.85;55.58;;;7.20;99.90;;;;;;5018352;28;20156;-72
2022/11/30 01:39:56;;;;;;;184.75;50.45;;;7.20;99.90;;;;;;4997499;28;20041;-72
2022/11/30 01:42:23;;;;;;;221.30;54.17;;;7.10;99.90;;;;;;5018034;28;20123;-72
2022/11/30 01:44:54;;;;;;;196.07;54.30;;;7.10;99.90;;;;;;4998798;28;20053;-72
2022/11/30 01:47:27;;;;;;;220.57;54.33;;;7.10;99.90;;;;;;5016752;28;20542;-71
2022/11/30 01:50:11;;;;;;;202.32;52.60;;;7.10;99.90;;;;;;5013706;28;20725;-71
2022/11/30 01:52:42;;;;;;;205.15;51.40;;;7.00;99.90;;;;;;5013382;28;20036;-71
2022/11/30 01:55:18;;;;;;;180.38;50.88;;;7.00;99.90;;;;;;5016820;28;20045;-72
2022/11/30 01:57:54;;;;;;;215.18;53.58;;;7.10;99.90;;;;;;5014473;28;20080;-74
2022/11/30 02:00:21;;;;;;;220.25;55.30;;;7.00;99.90;;;;;;5017376;28;20057;-71
2022/11/30 02:03:11;;;;;;;212.90;54.15;;;7.00;99.90;;;;;;5015889;28;20219;-74
2022/11/30 02:05:40;;;;;;;201.98;53.00;;;7.00;99.90;;;;;;4996102;28;20137;-71
2022/11/30 02:08:09;;;;;;;218.85;56.53;;;7.00;99.90;;;;;;5017066;28;20041;-72
2022/11/30 02:10:40;;;;;;;229.23;56.88;;;7.10;99.90;;;;;;5012020;28;20041;-71
2022/11/30 02:13:43;;;;;;;199.55;56.22;;;6.90;99.90;;;;;;4998362;28;20048;-71
2022/11/30 02:16:44;;;;;;;218.05;57.88;;;6.90;99.90;;;;;;4996605;28;20124;-71
2022/11/30 02:19:29;;;;;;;218.63;58.40;;;7.00;99.90;;;;;;5014031;28;20127;-71
2022/11/30 02:22:01;;;;;;;221.80;56.40;;;7.10;99.90;;;;;;4996528;28;20037;-71
2022/11/30 02:25:06;;;;;;;214.55;57.42;;;7.10;99.90;;;;;;5013639;28;20124;-74
2022/11/30 02:27:52;;;;;;;212.27;58.17;;;7.00;99.90;;;;;;5012889;28;20041;-70
2022/11/30 02:30:22;;;;;;;224.10;55.92;;;7.00;99.90;;;;;;4983568;28;20034;-73
2022/11/30 02:33:12;;;;;;;231.35;60.00;;;7.00;99.90;;;;;;5015386;28;20124;-72
2022/11/30 02:35:42;;;;;;;226.75;61.17;;;7.10;99.90;;;;;;5013536;28;20664;-72
2022/11/30 02:38:10;;;;;;;248.85;61.63;;;7.20;99.90;;;;;;4997272;28;20057;-73
2022/11/30 02:40:37;;;;;;;217.15;59.17;;;7.00;99.90;;;;;;5011058;28;20056;-72
2022/11/30 02:43:05;;;;;;;257.45;62.05;;;7.00;99.90;;;;;;5015868;28;20052;-72
2022/11/30 02:45:46;;;;;;;251.80;65.07;;;7.10;99.90;;;;;;5012543;28;20270;-72
2022/11/30 02:48:17;;;;;;;258.90;61.90;;;7.10;99.90;;;;;;5015527;28;20497;-75
2022/11/30 02:50:48;;;;;;;285.35;65.32;;;7.00;99.90;;;;;;5012577;28;20095;-74
2022/11/30 02:53:15;;;;;;;251.45;60.53;;;7.10;99.90;;;;;;5015644;28;20505;-73
2022/11/30 02:55:42;;;;;;;249.15;59.38;;;7.20;99.90;;;;;;4996119;28;20048;-73
2022/11/30 02:58:15;;;;;;;279.70;63.30;;;7.10;99.90;;;;;;4998241;23;20037;31
2022/11/30 03:00:42;;;;;;;235.98;58.40;;;7.00;99.90;;;;;;4972915;28;20035;-72
2022/11/30 03:03:09;;;;;;;204.13;52.90;;;7.10;99.90;;;;;;4972282;28;20034;-71
2022/11/30 03:05:35;;;;;;;203.30;53.97;;;7.10;99.90;;;;;;4960206;28;20041;-71
2022/11/30 03:08:02;;;;;;;216.07;53.97;;;7.10;99.90;;;;;;4976832;28;20053;-70
2022/11/30 03:10:29;;;;;;;203.30;49.15;;;7.10;99.90;;;;;;4977467;28;20046;-70
2022/11/30 03:12:59;;;;;;;155.73;43.95;;;7.10;99.90;;;;;;4967977;28;20042;-71
2022/11/30 03:15:26;;;;;;;152.10;40.38;;;7.10;99.90;;;;;;4952011;28;20049;-71
2022/11/30 03:17:52;;;;;;;140.55;37.45;;;7.00;99.90;;;;;;4976686;28;20076;-71
2022/11/30 03:20:19;;;;;;;119.43;34.30;;;7.10;99.90;;;;;;4962252;28;20077;-71
2022/11/30 03:22:45;;;;;;;140.48;37.70;;;7.00;99.90;;;;;;4950239;28;20042;-70
2022/11/30 03:25:12;;;;;;;122.28;33.45;;;7.00;99.90;;;;;;4973879;28;20061;-70
2022/11/30 03:27:39;;;;;;;110.68;31.08;;;7.10;99.90;;;;;;4974725;28;20047;-70
2022/11/30 03:30:06;;;;;;;121.50;32.90;;;7.10;99.90;;;;;;4957856;28;20050;-70
2022/11/30 03:32:33;;;;;;;113.22;31.38;;;7.10;99.90;;;;;;4950000;28;20042;-70
2022/11/30 03:34:59;;;;;;;110.07;31.08;;;7.00;99.90;;;;;;4973566;28;20034;-69
2022/11/30 03:37:26;;;;;;;109.68;28.92;;;7.00;99.90;;;;;;4976085;28;20043;-71
2022/11/30 03:39:52;;;;;;;105.25;29.02;;;6.90;99.90;;;;;;4974779;28;20057;-69
2022/11/30 03:42:24;;;;;;;109.15;26.98;;;7.00;99.90;;;;;;4972963;28;20043;-69
2022/11/30 03:44:50;;;;;;;113.72;29.40;;;7.00;99.90;;;;;;4973318;28;20616;-71
2022/11/30 03:47:17;;;;;;;123.28;31.05;;;7.00;99.90;;;;;;4977799;28;21358;-71
2022/11/30 03:49:44;;;;;;;96.00;27.88;;;7.00;99.90;;;;;;4959803;28;20487;-70
2022/11/30 03:52:10;;;;;;;100.40;28.45;;;7.00;99.90;;;;;;4950331;28;20035;-72
2022/11/30 03:54:37;;;;;;;110.15;27.13;;;6.90;99.90;;;;;;4952811;28;20045;-72
2022/11/30 03:57:03;;;;;;;109.15;27.48;;;6.90;99.90;;;;;;4977086;28;20206;-71
2022/11/30 03:59:30;;;;;;;92.93;27.20;;;6.90;99.90;;;;;;4958322;28;20039;-72
2022/11/30 04:01:57;;;;;;;110.40;30.23;;;6.90;99.90;;;;;;4968166;28;20042;-69
2022/11/30 04:04:24;;;;;;;131.75;33.25;;;6.90;99.90;;;;;;4978989;28;20158;-71
2022/11/30 04:06:50;;;;;;;140.10;35.03;;;6.90;99.90;;;;;;4976596;28;20363;-72
2022/11/30 04:09:17;;;;;;;129.68;35.30;;;6.90;99.90;;;;;;4955357;28;21255;-72
2022/11/30 04:11:43;;;;;;;132.98;33.67;;;6.80;99.90;;;;;;4977316;28;20104;-72
2022/11/30 04:14:10;;;;;;;128.88;36.08;;;6.90;99.90;;;;;;4957823;28;20050;-71
2022/11/30 04:16:37;;;;;;;131.27;36.28;;;6.90;99.90;;;;;;4959397;28;20030;-71
2022/11/30 04:19:03;;;;;;;139.45;35.88;;;6.90;99.90;;;;;;4969987;28;20217;-72
2022/11/30 04:21:31;;;;;;;156.10;37.80;;;6.80;99.90;;;;;;4977299;28;20332;-72
2022/11/30 04:23:57;;;;;;;154.82;40.75;;;6.90;99.90;;;;;;4962738;28;20506;-71
2022/11/30 04:26:24;;;;;;;165.30;39.08;;;7.00;99.90;;;;;;4951867;28;20373;-71
2022/11/30 04:28:51;;;;;;;146.35;39.95;;;6.90;99.90;;;;;;4975179;28;20043;-71
2022/11/30 04:31:17;;;;;;;166.77;39.70;;;6.90;99.90;;;;;;4971376;28;20046;-71
2022/11/30 04:33:44;;;;;;;167.27;38.70;;;7.00;99.90;;;;;;4972593;28;20043;-71
2022/11/30 04:36:18;;;;;;;177.77;41.08;;;6.80;99.90;;;;;;4970136;28;20042;-72
2022/11/30 04:38:46;;;;;;;173.68;40.10;;;6.80;99.90;;;;;;4975031;28;20061;-71
2022/11/30 04:41:13;;;;;;;160.23;40.58;;;6.70;99.90;;;;;;4966982;28;20053;-72
2022/11/30 04:43:39;;;;;;;160.80;38.85;;;6.80;99.90;;;;;;4977705;28;20210;-71
2022/11/30 04:46:06;;;;;;;167.35;40.97;;;6.70;99.90;;;;;;4972511;28;20038;-70
2022/11/30 04:48:33;;;;;;;194.15;45.55;;;6.70;99.90;;;;;;4976764;28;20129;-68
2022/11/30 04:51:02;;;;;;;151.88;37.72;;;6.80;99.90;;;;;;4973133;28;20531;-71
2022/11/30 04:53:29;;;;;;;164.40;40.45;;;6.70;99.90;;;;;;4978540;28;20532;-71
2022/11/30 04:55:55;;;;;;;194.15;46.38;;;6.80;99.90;;;;;;4968372;28;20038;-72
2022/11/30 04:58:22;;;;;;;215.80;46.78;;;6.80;99.90;;;;;;4974308;28;20136;-69
2022/11/30 05:00:51;;;;;;;224.90;49.13;;;6.80;99.90;;;;;;4967600;28;20043;-71
2022/11/30 05:03:18;;;;;;;212.90;47.30;;;6.60;99.90;;;;;;4956983;28;22870;-71
2022/11/30 05:05:45;;;;;;;206.25;46.65;;;6.60;99.90;;;;;;4960739;28;20053;-71
2022/11/30 05:08:11;;;;;;;206.77;43.83;;;6.60;99.90;;;;;;4957885;28;20409;-72
2022/11/30 05:10:38;;;;;;;193.48;44.28;;;6.70;99.90;;;;;;4972270;28;20035;-72
2022/11/30 05:13:04;;;;;;;239.57;47.58;;;6.60;99.90;;;;;;4951278;28;20202;-72
2022/11/30 05:15:31;;;;;;;201.23;44.45;;;6.50;99.90;;;;;;4957836;28;20071;-70
2022/11/30 05:18:00;;;;;;;185.98;42.45;;;6.50;99.90;;;;;;4955146;28;20493;-70
2022/11/30 05:20:30;;;;;;;199.63;43.45;;;6.40;99.90;;;;;;4965116;28;20101;-72
2022/11/30 05:22:56;;;;;;;180.07;40.58;;;6.40;99.90;;;;;;4951982;28;20042;-72
2022/11/30 05:25:23;;;;;;;166.55;41.00;;;6.30;99.90;;;;;;4967693;28;20133;-70
2022/11/30 05:27:50;;;;;;;192.18;40.67;;;6.30;99.90;;;;;;4965923;28;20041;-71
2022/11/30 05:30:16;;;;;;;165.73;37.88;;;6.20;99.90;;;;;;4966416;28;20043;-72
2022/11/30 05:32:43;;;;;;;187.70;39.63;;;6.20;99.90;;;;;;4962069;28;20040;-71
2022/11/30 05:35:10;;;;;;;172.65;38.85;;;6.30;99.90;;;;;;4945853;28;20050;-70
2022/11/30 05:37:36;;;;;;;175.23;37.30;;;6.30;99.90;;;;;;4965494;28;20042;-71
2022/11/30 05:40:04;;;;;;;170.10;39.35;;;6.40;99.90;;;;;;4965932;28;20076;-70
2022/11/30 05:42:30;;;;;;;187.30;39.83;;;6.40;99.90;;;;;;4961183;28;20054;-72
2022/11/30 05:44:57;;;;;;;184.07;41.35;;;6.50;99.90;;;;;;4971945;28;20046;-72
2022/11/30 05:47:24;;;;;;;177.82;39.22;;;6.50;99.90;;;;;;4949338;28;20053;-70
2022/11/30 05:49:50;;;;;;;195.43;44.35;;;6.50;99.90;;;;;;4957402;28;22144;-71
2022/11/30 05:52:17;;;;;;;219.20;48.03;;;6.50;99.90;;;;;;4969324;28;20042;-72
2022/11/30 05:54:44;;;;;;;175.45;39.95;;;6.40;99.90;;;;;;4974578;28;20045;-70
2022/11/30 05:57:11;;;;;;;149.98;36.63;;;6.30;99.90;;;;;;4970466;28;20043;-69
2022/11/30 05:59:37;;;;;;;151.30;37.75;;;6.30;99.90;;;;;;4966465;28;20042;-72
2022/11/30 06:02:04;;;;;;;155.20;38.65;;;6.20;99.90;;;;;;4973165;28;20038;-71
2022/11/30 06:04:32;;;;;;;138.70;35.70;;;6.20;99.90;;;;;;4969725;28;20047;-72
2022/11/30 06:06:59;;;;;;;151.13;38.83;;;6.20;99.90;;;;;;4958117;28;20579;-69
2022/11/30 06:09:26;;;;;;;146.07;36.70;;;6.20;99.90;;;;;;4962500;28;20305;-70
2022/11/30 06:11:52;;;;;;;181.18;41.00;;;6.20;99.90;;;;;;4974912;28;20042;-70
2022/11/30 06:14:19;;;;;;;187.65;45.20;;;6.30;99.90;;;;;;4968821;28;20057;-70
2022/11/30 06:16:45;;;;;;;201.35;46.88;;;6.30;99.90;;;;;;4956918;28;20109;-72
2022/11/30 06:19:12;;;;;;;200.40;46.40;;;6.30;99.90;;;;;;4960647;28;20050;-71
2022/11/30 06:21:39;;;;;;;181.98;43.92;;;6.30;99.90;;;;;;4968166;28;20043;-70
2022/11/30 06:24:06;;;;;;;213.82;45.40;;;6.40;99.90;;;;;;4969439;28;20035;-71
2022/11/30 06:26:32;;;;;;;225.07;45.75;;;6.30;99.90;;;;;;4967487;28;20058;-73
2022/11/30 06:28:59;;;;;;;204.38;46.40;;;6.40;99.90;;;;;;4959878;28;20074;-70
2022/11/30 06:31:26;;;;;;;190.45;46.67;;;6.30;99.90;;;;;;4947992;28;20042;-72
2022/11/30 06:33:56;;;;;;;229.52;51.03;;;6.30;99.90;;;;;;4967380;28;20108;-71
2022/11/30 06:36:23;;;;;;;176.45;47.03;;;6.40;99.90;;;;;;4964994;28;20789;-72
2022/11/30 06:38:50;;;;;;;222.30;50.58;;;6.40;99.90;;;;;;4959723;28;20452;-71
2022/11/30 06:41:17;;;;;;;241.32;52.78;;;6.40;99.90;;;;;;4956775;28;20049;-71
2022/11/30 06:43:43;;;;;;;255.57;47.90;;;6.40;99.90;;;;;;4960038;28;20134;-72
2022/11/30 06:46:10;;;;;;;226.73;50.30;;;6.30;99.90;;;;;;4970369;28;20058;-71
2022/11/30 06:48:37;;;;;;;206.43;48.70;;;6.40;99.90;;;;;;4961939;28;20101;-71
2022/11/30 06:51:05;;;;;;;247.52;50.22;;;6.30;99.90;;;;;;4964789;28;20045;-70
2022/11/30 06:53:32;;;;;;;305.10;54.45;;;6.30;99.90;;;;;;4969401;28;20054;-71
2022/11/30 06:56:03;;;;;;;555.58;75.93;;;6.40;99.90;;;;;;4939735;28;20045;-70
2022/11/30 06:58:40;;;;;;;489.27;65.90;;;6.30;99.90;;;;;;4956963;28;20050;-71
2022/11/30 07:01:10;;;;;;;374.05;62.33;;;6.30;99.90;;;;;;4957785;28;20066;-71
2022/11/30 07:03:37;;;;;;;445.40;65.68;;;6.30;99.90;;;;;;4956224;28;20043;-72
2022/11/30 07:06:09;;;;;;;330.48;54.72;;;6.30;99.90;;;;;;4967470;28;20050;-72
2022/11/30 07:08:36;;;;;;;567.22;75.65;;;6.40;99.90;;;;;;4970913;28;20500;-72
2022/11/30 07:11:05;;;;;;;523.30;71.05;;;6.40;99.90;;;;;;4965306;28;20030;-72
2022/11/30 07:13:32;;;;;;;667.55;81.63;;;6.30;99.90;;;;;;4960898;28;20046;-69
2022/11/30 07:16:01;;;;;;;636.60;82.15;;;6.40;99.90;;;;;;4965504;28;20181;-70
2022/11/30 07:18:28;;;;;;;585.95;77.65;;;6.30;99.90;;;;;;4948903;28;20054;-68
2022/11/30 07:20:59;;;;;;;707.13;86.43;;;6.20;99.90;;;;;;4969003;28;20412;-70
2022/11/30 07:26:20;;;;;;;500.50;74.18;;;6.20;99.90;;;;;;4960257;28;20504;-71
2022/11/30 07:28:53;;;;;;;439.75;59.80;;;6.30;99.90;;;;;;4969263;28;20470;-72
2022/11/30 07:31:22;;;;;;;308.70;53.80;;;6.20;99.90;;;;;;4942523;28;20105;-71
2022/11/30 07:33:50;;;;;;;352.95;56.17;;;6.20;99.90;;;;;;4949370;28;20043;-71
2022/11/30 07:36:19;;;;;;;335.77;55.30;;;6.20;99.90;;;;;;4970252;28;20042;-71
2022/11/30 07:38:46;;;;;;;432.88;63.20;;;6.30;99.90;;;;;;4948176;28;20126;-71
2022/11/30 07:41:13;;;;;;;373.77;60.80;;;6.30;99.90;;;;;;4973337;28;20492;-71
2022/11/30 07:43:40;;;;;;;417.27;67.22;;;6.40;99.90;;;;;;4936542;28;20050;-71
2022/11/30 07:46:10;;;;;;;340.40;56.78;;;6.30;99.90;;;;;;4971487;28;20381;-71
2022/11/30 07:48:36;;;;;;;367.50;56.72;;;6.30;99.90;;;;;;4955058;28;20073;-71
2022/11/30 07:51:10;;;;;;;372.13;58.03;;;6.30;99.90;;;;;;4955348;28;20043;-70
2022/11/30 07:53:37;;;;;;;395.38;57.28;;;6.30;99.90;;;;;;4951252;28;20042;-71
2022/11/30 07:56:06;;;;;;;605.17;70.15;;;6.30;99.90;;;;;;4974477;28;20340;-70
2022/11/30 07:58:34;;;;;;;534.70;66.70;;;6.30;99.90;;;;;;4952757;28;20063;-71
2022/11/30 08:01:06;;;;;;;567.42;71.40;;;6.20;99.90;;;;;;4953147;28;20037;-70
2022/11/30 08:03:33;;;;;;;567.63;66.95;;;6.10;99.90;;;;;;4951959;28;20058;-70
2022/11/30 08:06:09;;;;;;;510.52;64.93;;;6.20;99.90;;;;;;4959142;28;20270;-70
2022/11/30 08:08:38;;;;;;;599.42;77.60;;;6.30;99.90;;;;;;4969982;28;20635;-71
2022/11/30 08:11:06;;;;;;;621.30;83.45;;;6.40;99.90;;;;;;4969655;28;20049;-70
2022/11/30 08:13:33;;;;;;;645.60;85.97;;;6.30;99.90;;;;;;4970326;28;20031;-71
2022/11/30 08:16:06;;;;;;;580.55;80.97;;;6.20;99.90;;;;;;4952699;28;20042;-70
2022/11/30 08:18:33;;;;;;;487.40;73.18;;;6.20;99.90;;;;;;4956146;28;20045;-71
2022/11/30 08:21:02;;;;;;;458.25;62.38;;;6.20;99.90;;;;;;4975192;28;20065;-70
2022/11/30 08:23:31;;;;;;;658.10;88.30;;;6.20;99.90;;;;;;4968805;28;20504;-71
2022/11/30 08:26:05;;;;;;;692.28;93.88;;;6.20;99.90;;;;;;4973689;28;20035;-71
2022/11/30 08:28:34;;;;;;;675.17;98.60;;;6.20;99.90;;;;;;4950309;28;20043;-70
2022/11/30 08:31:07;;;;;;;586.78;87.35;;;6.20;99.90;;;;;;4960916;28;20235;-71
2022/11/30 08:33:35;;;;;;;569.83;74.30;;;6.30;99.90;;;;;;4964116;28;20051;-70
2022/11/30 08:36:10;;;;;;;538.72;72.78;;;6.30;99.90;;;;;;4959066;28;20050;-71
2022/11/30 08:38:38;;;;;;;420.42;55.75;;;6.20;99.90;;;;;;4969005;28;20043;-71
2022/11/30 08:41:06;;;;;;;361.00;60.75;;;6.20;99.90;;;;;;4973642;28;20428;-70
2022/11/30 08:43:33;;;;;;;482.83;73.55;;;6.30;99.90;;;;;;4971710;28;20298;-71
2022/11/30 08:46:05;;;;;;;422.13;62.15;;;6.20;99.90;;;;;;4963133;28;20035;-70
2022/11/30 08:48:52;;;;;;;289.85;53.03;;;6.20;99.90;;;;;;4967304;28;20049;-71
2022/11/30 08:51:38;;;;;;;352.33;68.95;;;6.10;99.90;;;;;;4967630;28;20516;-70
2022/11/30 08:54:26;;;;;;;303.35;53.45;;;6.20;99.90;;;;;;4961398;28;20070;-70
2022/11/30 08:56:52;;;;;;;294.80;49.97;;;6.10;99.90;;;;;;4967242;28;20053;-71
2022/11/30 08:59:19;;;;;;;320.60;55.92;;;6.20;99.90;;;;;;4998038;23;21126;-75
2022/11/30 09:01:46;;;;;;;298.90;52.67;;;6.20;99.90;;;;;;4988648;28;20049;-75
2022/11/30 09:04:12;;;;;;;291.48;52.00;;;6.20;99.90;;;;;;4972573;28;20416;-75
2022/11/30 09:06:39;;;;;;;290.83;52.60;;;6.30;99.90;;;;;;4977240;28;20309;-75
2022/11/30 09:09:05;;;;;;;228.38;42.10;;;6.40;99.90;;;;;;4962409;28;20101;-77
2022/11/30 09:11:32;;;;;;;229.23;42.30;;;6.40;99.90;;;;;;4973606;28;20047;-74
2022/11/30 09:14:03;;;;;;;230.63;43.15;;;6.50;99.90;;;;;;4954866;28;20590;-74
2022/11/30 09:16:30;;;;;;;227.13;47.17;;;6.50;99.90;;;;;;4958057;28;20038;-75
2022/11/30 09:18:56;;;;;;;241.35;47.80;;;6.50;99.90;;;;;;4961168;28;20042;-75
2022/11/30 09:21:24;;;;;;;349.67;55.33;;;6.60;99.90;;;;;;4965592;28;20038;-75
2022/11/30 09:23:51;;;;;;;303.55;51.22;;;6.60;99.90;;;;;;4970778;28;20130;-74
2022/11/30 09:26:19;;;;;;;316.05;53.80;;;6.50;99.90;;;;;;4975193;28;20464;-75
2022/11/30 09:28:47;;;;;;;450.10;64.70;;;6.50;99.90;;;;;;4979793;28;20038;-75
2022/11/30 09:31:17;;;;;;;377.67;54.83;;;6.50;99.90;;;;;;4953456;28;20122;-76
2022/11/30 09:33:44;;;;;;;262.25;45.45;;;6.40;99.90;;;;;;4974932;28;20501;-77
2022/11/30 09:36:13;;;;;;;227.95;46.03;;;6.40;99.90;;;;;;4970921;28;20332;-77
2022/11/30 09:38:43;;;;;;;250.10;44.97;;;6.30;99.90;;;;;;4965881;28;20126;-75
2022/11/30 09:41:28;;;;;;;214.27;42.60;;;6.50;99.90;;;;;;4975166;28;20046;-75
2022/11/30 09:44:12;;;;;;;266.52;45.28;;;6.40;99.90;;;;;;4972319;28;20058;-74
2022/11/30 09:46:46;;;;;;;234.07;41.67;;;6.30;99.90;;;;;;4971362;28;20046;-75
2022/11/30 09:49:25;;;;;;;251.32;43.88;;;6.40;99.90;;;;;;4970901;28;20079;-75
2022/11/30 09:51:55;;;;;;;280.05;45.17;;;6.50;99.90;;;;;;4970036;28;21043;-75
2022/11/30 09:54:37;;;;;;;309.83;48.05;;;6.50;99.90;;;;;;4954273;28;20049;-75
2022/11/30 09:57:19;;;;;;;310.70;51.40;;;6.60;99.90;;;;;;4963733;28;20522;-75
2022/11/30 09:59:58;;;;;;;460.23;63.30;;;6.60;99.90;;;;;;4967569;28;20047;-75
2022/11/30 10:02:29;;;;;;;362.58;57.25;;;6.60;99.90;;;;;;4937761;28;20042;-75
2022/11/30 10:04:56;;;;;;;407.67;55.17;;;6.60;99.90;;;;;;4970673;28;20126;-75
2022/11/30 10:07:50;;;;;;;413.20;59.10;;;6.60;99.90;;;;;;4975051;28;20050;-75
2022/11/30 10:10:31;;;;;;;392.30;55.80;;;6.60;99.90;;;;;;4968505;28;20528;-75
2022/11/30 10:13:23;;;;;;;358.98;51.97;;;6.60;99.90;;;;;;4960123;28;20039;-75
2022/11/30 10:15:56;;;;;;;310.63;49.58;;;6.60;99.90;;;;;;4967464;28;20062;-75
2022/11/30 10:18:44;;;;;;;309.23;50.90;;;6.60;99.90;;;;;;4957370;28;20038;-75
2022/11/30 10:21:13;;;;;;;285.60;48.75;;;6.60;99.90;;;;;;4968894;28;20501;-77
2022/11/30 10:24:09;;;;;;;324.35;56.75;;;6.50;99.90;;;;;;4966907;28;20055;-74
2022/11/30 10:26:37;;;;;;;;;;;6.50;99.90;;;;;;4956013;28;20042;-75
2022/11/30 10:29:17;;;;;;;340.23;53.25;;;6.40;99.90;;;;;;4973669;28;19921;-75
2022/11/30 10:31:48;;;;;;;337.77;54.15;;;6.50;99.90;;;;;;4955349;28;20035;-75
2022/11/30 10:34:39;;;;;;;405.70;62.05;;;6.50;99.90;;;;;;4955702;28;20065;-75
2022/11/30 10:37:18;;;;;;;221.25;44.85;;;6.40;99.90;;;;;;4938940;28;20043;-75
2022/11/30 10:40:00;;;;;;;303.90;51.13;;;6.50;99.90;;;;;;4972063;28;20054;-72
2022/11/30 10:42:37;;;;;;;360.88;49.95;;;6.50;99.90;;;;;;4983036;28;20045;-72
2022/11/30 10:45:09;;;;;;;471.80;62.33;;;6.50;99.90;;;;;;4980497;28;20126;-71
2022/11/30 10:47:41;;;;;;;413.55;56.53;;;6.50;99.90;;;;;;4963043;28;20218;-71
2022/11/30 10:50:14;;;;;;;365.08;52.47;;;6.40;99.90;;;;;;4981091;28;20053;-71
2022/11/30 10:52:51;;;;;;;314.02;55.85;;;6.50;99.90;;;;;;4958963;28;20109;-72
2022/11/30 10:55:21;;;;;;;381.35;60.17;;;6.60;99.90;;;;;;4980914;28;20046;-71
2022/11/30 10:57:49;;;;;;;271.58;46.55;;;6.60;99.90;;;;;;4954506;28;20643;-72
2022/11/30 11:00:17;;;;;;;311.10;47.00;;;6.60;99.90;;;;;;4962152;28;20737;-71
2022/11/30 11:02:46;;;;;;;361.55;51.72;;;6.70;99.90;;;;;;4965484;28;20061;-72
2022/11/30 11:05:23;;;;;;;495.95;65.65;;;6.60;99.90;;;;;;4966537;28;20080;-71
2022/11/30 11:07:55;;;;;;;306.00;50.70;;;6.60;99.90;;;;;;4953355;28;20517;-74
2022/11/30 11:10:50;;;;;;;421.17;58.70;;;6.60;99.90;;;;;;4965816;28;21122;-73
2022/11/30 11:13:37;;;;;;;276.23;49.50;;;6.60;99.90;;;;;;4969338;28;20046;-73
2022/11/30 11:16:07;;;;;;;357.33;54.55;;;6.60;99.90;;;;;;4958413;28;20038;-72
2022/11/30 11:18:36;;;;;;;272.98;49.17;;;6.70;99.90;;;;;;4970210;28;20563;-72
2022/11/30 11:21:06;;;;;;;143.48;37.28;;;6.60;99.90;;;;;;4965775;28;20133;-71
2022/11/30 11:23:39;;;;;;;117.32;34.38;;;6.60;99.90;;;;;;4971825;28;20097;-71
2022/11/30 11:26:14;;;;;;;126.78;38.10;;;6.60;99.90;;;;;;4967299;28;20390;-72
2022/11/30 11:28:44;;;;;;;138.32;37.47;;;6.60;99.90;;;;;;4962687;28;20035;-72
2022/11/30 11:31:34;;;;;;;146.88;38.83;;;6.60;99.90;;;;;;4963958;28;20046;-71
2022/11/30 11:34:03;;;;;;;180.85;44.35;;;6.60;99.90;;;;;;4942548;28;20053;-71
2022/11/30 11:36:33;;;;;;;155.15;40.33;;;6.70;99.90;;;;;;4948327;28;20163;-72
2022/11/30 11:39:00;;;;;;;158.45;40.17;;;6.70;99.90;;;;;;4946805;28;20529;-71
2022/11/30 11:41:32;;;;;;;149.25;35.22;;;6.70;99.90;;;;;;4967708;28;20448;-72
2022/11/30 11:44:08;;;;;;;158.88;38.55;;;6.70;99.90;;;;;;4970541;28;20096;-72
2022/11/30 11:46:56;;;;;;;215.07;42.90;;;6.80;99.90;;;;;;4962545;28;20047;-72
2022/11/30 11:49:35;;;;;;;174.60;44.47;;;6.80;99.90;;;;;;4953998;28;20046;-72
2022/11/30 11:52:16;;;;;;;124.90;36.60;;;6.80;99.90;;;;;;4971414;28;20289;-72
2022/11/30 11:55:04;;;;;;;114.10;34.42;;;6.80;99.90;;;;;;4969947;28;20389;-71
2022/11/30 11:57:47;;;;;;;263.20;45.47;;;6.70;99.90;;;;;;4947990;28;20046;-71
2022/11/30 12:00:18;;;;;;;309.98;53.55;;;6.80;99.90;;;;;;4963805;28;20074;-70
2022/11/30 12:02:53;;;;;;;319.00;52.15;;;6.80;99.90;;;;;;4969990;28;20049;-72
2022/11/30 12:05:26;;;;;;;369.25;74.30;;;6.90;99.90;;;;;;4956176;28;20557;-71
2022/11/30 12:08:26;;;;;;;510.85;66.30;;;6.90;99.90;;;;;;4973252;28;20057;-71
2022/11/30 12:11:42;;;;;;;346.00;53.25;;;6.80;99.90;;;;;;4968230;28;20090;-71
2022/11/30 12:14:15;;;;;;;193.97;40.83;;;6.80;99.90;;;;;;4913734;29;20048;-71
2022/11/30 12:17:05;;;;;;;267.33;49.50;;;6.80;99.90;;;;;;4900068;29;20050;-71
2022/11/30 12:19:40;;;;;;;149.55;47.15;;;6.70;99.90;;;;;;4946322;28;20057;-71
2022/11/30 12:22:37;;;;;;;132.20;40.97;;;6.80;99.90;;;;;;4952071;28;20046;-70
2022/11/30 12:25:22;;;;;;;157.50;41.97;;;6.80;99.90;;;;;;4949297;28;20542;-71
2022/11/30 12:28:18;;;;;;;121.72;38.92;;;6.90;99.90;;;;;;4948403;28;20223;-71
2022/11/30 12:30:45;;;;;;;103.10;37.03;;;6.90;99.90;;;;;;4949367;28;20042;-71
2022/11/30 12:33:53;;;;;;;83.60;31.27;;;7.00;99.90;;;;;;4956188;28;20351;-71
2022/11/30 12:36:42;;;;;;;79.65;29.45;;;7.00;99.90;;;;;;4895564;29;20538;-71
2022/11/30 12:39:40;;;;;;;104.97;34.78;;;7.10;99.90;;;;;;4949506;28;20050;-71
2022/11/30 12:42:31;;;;;;;79.75;31.98;;;7.10;99.90;;;;;;4972002;28;20404;-72
2022/11/30 12:45:23;;;;;;;92.78;37.65;;;7.00;99.90;;;;;;4974519;28;20113;-72
2022/11/30 12:48:05;;;;;;;127.40;48.97;;;7.00;99.90;;;;;;4969715;28;20049;-71
2022/11/30 12:51:00;;;;;;;119.78;45.90;;;6.90;99.90;;;;;;4969953;28;20042;-71
2022/11/30 12:53:46;;;;;;;86.47;35.05;;;6.80;99.90;;;;;;4967435;28;20233;-72